createdAt,value
2019-05-09T00:01:20.390Z,10.87
2019-05-09T00:03:47.313Z,10.10
2019-05-09T00:06:13.985Z,10.80
2019-05-09T00:08:43.941Z,9.83
2019-05-09T00:11:10.094Z,10.90
2019-05-09T00:13:36.672Z,11.00
2019-05-09T00:16:03.769Z,10.47
2019-05-09T00:18:30.596Z,10.47
2019-05-09T00:20:59.144Z,10.73
2019-05-09T00:23:27.409Z,11.33
2019-05-09T00:25:54.065Z,11.30
2019-05-09T00:28:20.740Z,11.23
2019-05-09T00:31:07.169Z,9.80
2019-05-09T00:33:34.546Z,10.70
2019-05-09T00:36:03.869Z,12.10
2019-05-09T00:38:35.240Z,11.87
2019-05-09T00:41:03.848Z,12.07
2019-05-09T00:43:30.460Z,13.67
2019-05-09T00:46:04.178Z,12.20
2019-05-09T00:48:33.666Z,12.80
2019-05-09T00:51:03.290Z,12.10
2019-05-09T00:53:29.810Z,13.97
2019-05-09T00:55:56.988Z,13.17
2019-05-09T00:58:24.186Z,13.13
2019-05-09T01:00:52.759Z,13.30
2019-05-09T01:03:20.349Z,13.20
2019-05-09T01:05:47.561Z,13.17
2019-05-09T01:08:14.277Z,14.00
2019-05-09T01:10:40.811Z,14.33
2019-05-09T01:13:07.391Z,14.10
2019-05-09T01:15:33.821Z,14.80
2019-05-09T01:18:00.398Z,15.53
2019-05-09T01:20:27.176Z,14.87
2019-05-09T01:22:54.185Z,14.87
2019-05-09T01:25:21.124Z,15.67
2019-05-09T01:27:49.353Z,14.50
2019-05-09T01:30:16.946Z,14.30
2019-05-09T01:32:50.143Z,15.30
2019-05-09T01:35:16.834Z,15.53
2019-05-09T01:37:43.507Z,16.07
2019-05-09T01:40:10.577Z,16.10
2019-05-09T01:42:37.150Z,15.57
2019-05-09T01:45:06.394Z,16.23
2019-05-09T01:47:34.161Z,16.63
2019-05-09T01:50:04.000Z,17.63
2019-05-09T01:52:30.606Z,16.80
2019-05-09T01:54:57.286Z,16.87
2019-05-09T01:57:23.957Z,16.97
2019-05-09T01:59:53.207Z,17.10
2019-05-09T02:02:20.244Z,16.80
2019-05-09T02:04:46.785Z,17.00
2019-05-09T02:07:13.520Z,17.70
2019-05-09T02:09:40.351Z,15.97
2019-05-09T02:12:07.682Z,17.17
2019-05-09T02:14:45.194Z,15.70
2019-05-09T02:17:15.344Z,14.00
2019-05-09T02:19:44.765Z,13.50
2019-05-09T02:22:29.960Z,10.40
2019-05-09T02:24:56.515Z,11.60
2019-05-09T02:27:23.841Z,10.90
2019-05-09T02:29:50.543Z,12.60
2019-05-09T02:32:17.794Z,11.90
2019-05-09T02:34:44.402Z,12.53
2019-05-09T02:37:11.047Z,15.07
2019-05-09T02:39:39.404Z,14.50
2019-05-09T02:42:10.799Z,13.00
2019-05-09T02:44:39.357Z,13.20
2019-05-09T02:47:09.047Z,13.80
2019-05-09T02:49:38.857Z,12.70
2019-05-09T02:52:08.580Z,12.37
2019-05-09T02:54:33.981Z,11.90
2019-05-09T02:57:00.710Z,11.90
2019-05-09T02:59:29.896Z,10.50
2019-05-09T03:02:01.648Z,9.87
2019-05-09T03:04:28.603Z,10.40
2019-05-09T03:06:55.314Z,9.90
2019-05-09T03:09:22.359Z,9.30
2019-05-09T03:11:49.054Z,8.47
2019-05-09T03:14:19.147Z,8.80
2019-05-09T03:16:44.358Z,9.00
2019-05-09T03:19:11.295Z,9.50
2019-05-09T03:21:39.883Z,8.37
2019-05-09T03:24:09.470Z,7.53
2019-05-09T03:26:38.580Z,7.83
2019-05-09T03:29:19.029Z,8.40
2019-05-09T03:31:49.750Z,8.67
2019-05-09T03:34:14.074Z,9.80
2019-05-09T03:36:41.169Z,9.30
2019-05-09T03:39:08.261Z,10.77
2019-05-09T03:41:35.891Z,10.10
2019-05-09T03:44:02.783Z,10.83
2019-05-09T03:46:34.245Z,11.70
2019-05-09T03:49:02.809Z,10.53
2019-05-09T03:51:30.100Z,10.90
2019-05-09T03:53:57.578Z,11.57
2019-05-09T03:56:29.897Z,14.43
2019-05-09T03:58:57.955Z,13.37
2019-05-09T04:01:24.569Z,13.60
2019-05-09T04:03:51.146Z,12.80
2019-05-09T04:06:18.485Z,10.63
2019-05-09T04:08:45.324Z,9.27
2019-05-09T04:11:11.988Z,9.00
2019-05-09T04:13:43.554Z,8.47
2019-05-09T04:16:10.086Z,9.50
2019-05-09T04:18:37.675Z,8.37
2019-05-09T04:21:05.026Z,8.67
2019-05-09T04:23:31.971Z,10.03
2019-05-09T04:26:09.765Z,8.83
2019-05-09T04:28:39.624Z,8.70
2019-05-09T04:31:07.403Z,9.20
2019-05-09T04:33:37.724Z,9.70
2019-05-09T04:36:08.190Z,9.43
2019-05-09T04:38:34.379Z,8.90
2019-05-09T04:41:02.622Z,9.33
2019-05-09T04:43:35.756Z,10.03
2019-05-09T04:46:01.669Z,10.73
2019-05-09T04:48:31.871Z,12.20
2019-05-09T04:51:01.101Z,11.60
2019-05-09T04:53:28.869Z,13.43
2019-05-09T04:55:58.082Z,13.13
2019-05-09T04:58:27.286Z,12.77
2019-05-09T05:01:07.416Z,12.87
2019-05-09T05:03:34.768Z,13.90
2019-05-09T05:06:01.447Z,14.20
2019-05-09T05:08:28.532Z,14.37
2019-05-09T05:10:55.178Z,14.13
2019-05-09T05:13:26.364Z,15.10
2019-05-09T05:15:50.509Z,14.17
2019-05-09T05:18:17.365Z,15.97
2019-05-09T05:20:48.071Z,16.70
2019-05-09T05:23:38.031Z,16.20
2019-05-09T05:26:04.630Z,15.80
2019-05-09T05:28:31.298Z,16.40
2019-05-09T05:30:58.287Z,16.20
2019-05-09T05:33:27.817Z,15.47
2019-05-09T05:35:57.399Z,14.93
2019-05-09T05:38:24.107Z,14.80
2019-05-09T05:40:51.760Z,15.23
2019-05-09T05:43:18.418Z,14.20
2019-05-09T05:45:47.945Z,15.50
2019-05-09T05:48:17.489Z,15.63
2019-05-09T05:50:44.122Z,15.07
2019-05-09T05:53:10.778Z,15.40
2019-05-09T05:55:37.939Z,17.17
2019-05-09T05:58:04.480Z,17.67
2019-05-09T06:00:31.005Z,16.60
2019-05-09T06:02:58.535Z,16.00
2019-05-09T06:05:27.636Z,16.00
2019-05-09T06:07:53.718Z,16.20
2019-05-09T06:10:20.406Z,17.07
2019-05-09T06:12:48.205Z,16.80
2019-05-09T06:15:18.033Z,17.93
2019-05-09T06:17:44.346Z,16.90
2019-05-09T06:20:11.708Z,18.73
2019-05-09T06:22:38.953Z,18.10
2019-05-09T06:25:09.835Z,18.07
2019-05-09T06:27:34.486Z,18.30
2019-05-09T06:30:05.476Z,19.30
2019-05-09T06:32:32.706Z,19.73
2019-05-09T06:34:59.473Z,18.90
2019-05-09T06:37:27.667Z,19.97
2019-05-09T06:39:58.087Z,21.20
2019-05-09T06:42:25.442Z,19.37
2019-05-09T06:45:07.750Z,19.70
2019-05-09T06:47:38.099Z,19.17
2019-05-09T06:50:07.957Z,20.10
2019-05-09T06:52:34.737Z,20.70
2019-05-09T06:55:01.284Z,21.30
2019-05-09T06:57:28.930Z,19.67
2019-05-09T06:59:57.631Z,19.07
2019-05-09T07:02:28.272Z,17.80
2019-05-09T07:04:58.291Z,18.63
2019-05-09T07:07:34.311Z,19.70
2019-05-09T07:10:07.586Z,18.27
2019-05-09T07:12:34.673Z,19.00
2019-05-09T07:15:01.553Z,18.60
2019-05-09T07:17:31.682Z,18.50
2019-05-09T07:19:58.754Z,16.90
2019-05-09T07:22:28.061Z,18.07
2019-05-09T07:25:05.542Z,17.40
2019-05-09T07:27:29.967Z,17.47
2019-05-09T07:29:58.821Z,19.33
2019-05-09T07:32:27.764Z,17.97
2019-05-09T07:34:57.894Z,16.83
2019-05-09T07:37:24.488Z,17.57
2019-05-09T07:39:51.123Z,15.13
2019-05-09T07:42:18.086Z,14.67
2019-05-09T07:44:48.971Z,14.10
2019-05-09T07:47:13.717Z,14.87
2019-05-09T07:49:40.257Z,15.60
2019-05-09T07:52:10.091Z,15.40
2019-05-09T07:54:37.559Z,15.10
2019-05-09T07:57:03.710Z,12.97
2019-05-09T07:59:30.240Z,13.27
2019-05-09T08:01:58.155Z,12.83
2019-05-09T08:04:26.119Z,12.57
2019-05-09T08:06:53.347Z,10.17
2019-05-09T08:09:19.882Z,10.83
2019-05-09T08:11:48.297Z,12.27
2019-05-09T08:14:17.638Z,12.10
2019-05-09T08:16:43.974Z,11.67
2019-05-09T08:19:10.511Z,11.03
2019-05-09T08:21:38.346Z,10.60
2019-05-09T08:24:05.248Z,10.10
2019-05-09T08:26:31.926Z,11.87
2019-05-09T08:28:59.171Z,10.93
2019-05-09T08:31:27.881Z,10.67
2019-05-09T08:33:54.274Z,10.57
2019-05-09T08:36:20.964Z,9.97
2019-05-09T08:38:47.878Z,9.50
2019-05-09T08:41:15.188Z,9.43
2019-05-09T08:43:41.812Z,9.43
2019-05-09T08:46:10.352Z,8.70
2019-05-09T08:48:37.809Z,7.60
2019-05-09T08:51:08.875Z,8.20
2019-05-09T08:53:37.955Z,7.77
2019-05-09T08:56:04.115Z,7.90
2019-05-09T08:58:30.781Z,8.83
2019-05-09T09:01:04.092Z,7.10
2019-05-09T09:03:25.799Z,7.30
2019-05-09T09:05:52.740Z,8.30
2019-05-09T09:08:19.295Z,8.10
2019-05-09T09:10:48.590Z,8.03
2019-05-09T09:13:14.201Z,8.07
2019-05-09T09:16:04.819Z,7.13
2019-05-09T09:18:09.605Z,7.47
2019-05-09T09:20:37.994Z,7.53
2019-05-09T09:23:05.591Z,8.73
2019-05-09T09:25:32.349Z,7.57
2019-05-09T09:27:59.124Z,8.50
2019-05-09T09:30:28.954Z,9.43
2019-05-09T09:32:54.615Z,8.07
2019-05-09T09:35:21.349Z,8.30
2019-05-09T09:37:51.865Z,7.00
2019-05-09T09:40:17.725Z,7.43
2019-05-09T09:42:44.420Z,7.30
2019-05-09T09:45:13.594Z,6.43
2019-05-09T09:47:40.530Z,6.73
2019-05-09T09:50:08.779Z,6.10
2019-05-09T09:52:38.257Z,4.80
2019-05-09T09:55:08.775Z,5.60
2019-05-09T09:57:34.663Z,6.40
2019-05-09T10:00:13.439Z,5.33
2019-05-09T10:02:41.911Z,6.20
2019-05-09T10:05:08.853Z,5.10
2019-05-09T10:07:38.292Z,4.80
2019-05-09T10:10:07.900Z,5.07
2019-05-09T10:12:34.592Z,5.07
2019-05-09T10:15:09.540Z,4.53
2019-05-09T10:17:47.757Z,4.93
2019-05-09T10:20:18.164Z,4.60
2019-05-09T10:22:55.367Z,5.00
2019-05-09T10:25:13.027Z,3.90
2019-05-09T10:27:39.670Z,2.50
2019-05-09T10:30:09.084Z,3.30
2019-05-09T10:32:38.194Z,3.47
2019-05-09T10:35:04.822Z,3.90
2019-05-09T10:37:31.358Z,3.03
2019-05-09T10:39:58.264Z,3.30
2019-05-09T10:42:29.368Z,2.40
2019-05-09T10:45:00.784Z,2.77
2019-05-09T10:47:29.342Z,2.63
2019-05-09T10:49:58.182Z,3.57
2019-05-09T10:52:24.941Z,3.30
2019-05-09T10:54:52.015Z,3.70
2019-05-09T10:57:18.554Z,4.17
2019-05-09T10:59:45.225Z,3.30
2019-05-09T11:02:12.265Z,3.77
2019-05-09T11:04:43.071Z,4.17
2019-05-09T11:07:09.191Z,4.40
2019-05-09T11:09:35.862Z,5.63
2019-05-09T11:12:02.596Z,4.37
2019-05-09T11:14:36.608Z,5.63
2019-05-09T11:17:07.942Z,5.00
2019-05-09T11:19:28.650Z,6.13
2019-05-09T11:21:54.408Z,6.87
2019-05-09T11:24:21.110Z,6.57
2019-05-09T11:26:48.173Z,7.57
2019-05-09T11:29:14.979Z,7.33
2019-05-09T11:31:41.648Z,8.23
2019-05-09T11:34:08.958Z,8.40
2019-05-09T11:36:37.923Z,7.23
2019-05-09T11:39:10.254Z,7.73
2019-05-09T11:41:35.275Z,7.47
2019-05-09T11:44:01.917Z,8.13
2019-05-09T11:46:28.999Z,10.13
2019-05-09T11:48:57.942Z,9.23
2019-05-09T11:51:25.230Z,8.73
2019-05-09T11:53:52.365Z,9.10
2019-05-09T11:56:18.926Z,8.60
2019-05-09T11:58:47.831Z,7.83
2019-05-09T12:01:13.932Z,7.70
2019-05-09T12:03:40.561Z,8.33
2019-05-09T12:06:07.973Z,7.23
2019-05-09T12:08:34.863Z,5.70
2019-05-09T12:11:01.409Z,5.27
2019-05-09T12:13:27.943Z,5.70
2019-05-09T12:15:54.597Z,5.30
2019-05-09T12:18:21.339Z,5.00
2019-05-09T12:20:49.631Z,5.70
2019-05-09T12:23:19.647Z,5.40
2019-05-09T12:25:44.804Z,6.83
2019-05-09T12:28:12.447Z,5.77
2019-05-09T12:30:39.114Z,5.10
2019-05-09T12:33:08.324Z,6.67
2019-05-09T12:35:34.038Z,5.60
2019-05-09T12:38:01.478Z,5.30
2019-05-09T12:40:29.194Z,5.73
2019-05-09T12:42:55.902Z,4.33
2019-05-09T12:45:22.693Z,4.40
2019-05-09T12:47:49.252Z,4.00
2019-05-09T12:50:18.538Z,4.10
2019-05-09T12:52:44.370Z,4.80
2019-05-09T12:55:13.067Z,3.83
2019-05-09T12:57:40.674Z,3.50
2019-05-09T13:00:08.605Z,2.73
2019-05-09T13:02:35.279Z,3.07
2019-05-09T13:05:07.867Z,2.60
2019-05-09T13:07:34.258Z,3.03
2019-05-09T13:10:03.803Z,3.23
2019-05-09T13:12:31.774Z,2.83
2019-05-09T13:14:58.344Z,4.47
2019-05-09T13:17:30.389Z,3.77
2019-05-09T13:19:58.559Z,3.50
2019-05-09T13:22:28.226Z,2.97
2019-05-09T13:24:54.015Z,2.93
2019-05-09T13:27:20.769Z,2.50
2019-05-09T13:29:49.294Z,2.83
2019-05-09T13:32:17.996Z,3.07
2019-05-09T13:34:44.732Z,3.00
2019-05-09T13:37:11.923Z,3.20
2019-05-09T13:39:39.646Z,3.80
2019-05-09T13:42:08.183Z,3.10
2019-05-09T13:44:39.017Z,2.73
2019-05-09T13:47:03.579Z,3.20
2019-05-09T13:49:30.105Z,3.30
2019-05-09T13:52:03.526Z,3.63
2019-05-09T13:54:28.335Z,3.63
2019-05-09T13:56:57.811Z,3.10
2019-05-09T13:59:23.572Z,3.50
2019-05-09T14:01:50.304Z,3.70
2019-05-09T14:04:17.025Z,4.57
2019-05-09T14:06:43.849Z,4.57
2019-05-09T14:09:10.896Z,4.13
2019-05-09T14:11:37.548Z,3.60
2019-05-09T14:14:05.019Z,3.40
2019-05-09T14:16:31.652Z,2.70
2019-05-09T14:19:21.946Z,2.83
2019-05-09T14:21:29.756Z,2.33
2019-05-09T14:24:10.968Z,2.50
2019-05-09T14:26:27.738Z,2.30
2019-05-09T14:28:54.502Z,2.30
2019-05-09T14:31:21.135Z,2.50
2019-05-09T14:33:47.889Z,2.57
2019-05-09T14:36:15.351Z,2.50
2019-05-09T14:38:42.624Z,2.17
2019-05-09T14:41:09.962Z,2.90
2019-05-09T14:43:39.423Z,2.90
2019-05-09T14:46:05.152Z,2.60
2019-05-09T14:48:32.076Z,2.53
2019-05-09T14:50:58.821Z,2.77
2019-05-09T14:53:28.322Z,2.63
2019-05-09T14:55:54.314Z,2.37
2019-05-09T14:58:20.881Z,2.70
2019-05-09T15:00:47.944Z,2.50
2019-05-09T15:03:15.088Z,2.10
2019-05-09T15:05:41.723Z,2.40
2019-05-09T15:08:09.999Z,2.40
2019-05-09T15:10:38.437Z,2.30
2019-05-09T15:13:07.859Z,2.10
2019-05-09T15:15:35.030Z,2.37
2019-05-09T15:18:01.777Z,1.93
2019-05-09T15:20:28.646Z,2.40
2019-05-09T15:22:55.494Z,2.00
2019-05-09T15:25:22.372Z,1.87
2019-05-09T15:27:48.995Z,2.30
2019-05-09T15:30:18.717Z,2.30
2019-05-09T15:32:47.567Z,2.30
2019-05-09T15:35:14.277Z,2.07
2019-05-09T15:37:42.121Z,2.40
2019-05-09T15:40:09.298Z,2.10
2019-05-09T15:42:39.019Z,2.60
2019-05-09T15:45:07.739Z,2.40
2019-05-09T15:47:38.440Z,2.60
2019-05-09T15:50:16.554Z,2.47
2019-05-09T15:52:38.092Z,2.20
2019-05-09T15:55:09.178Z,2.27
2019-05-09T15:57:34.702Z,2.03
2019-05-09T16:00:08.214Z,2.03
2019-05-09T16:02:34.613Z,1.30
2019-05-09T16:05:01.380Z,1.27
2019-05-09T16:07:28.490Z,1.10
2019-05-09T16:09:55.170Z,1.50
2019-05-09T16:12:21.841Z,1.13
2019-05-09T16:14:48.749Z,1.07
2019-05-09T16:17:18.849Z,1.10
2019-05-09T16:19:44.529Z,1.10
2019-05-09T16:22:11.097Z,1.00
2019-05-09T16:24:38.130Z,1.20
2019-05-09T16:27:04.912Z,1.20
2019-05-09T16:29:32.495Z,1.20
2019-05-09T16:31:59.277Z,1.40
2019-05-09T16:34:28.097Z,1.10
2019-05-09T16:36:54.548Z,1.10
2019-05-09T16:39:21.170Z,1.00
2019-05-09T16:41:48.301Z,1.00
2019-05-09T16:44:18.020Z,1.17
2019-05-09T16:46:44.084Z,1.00
2019-05-09T16:49:11.866Z,1.00
2019-05-09T16:51:40.581Z,1.00
2019-05-09T16:54:07.524Z,1.20
2019-05-09T16:56:35.095Z,1.10
2019-05-09T16:59:01.724Z,1.07
2019-05-09T17:01:28.537Z,1.10
2019-05-09T17:03:57.347Z,1.00
2019-05-09T17:06:23.820Z,0.97
2019-05-09T17:08:50.551Z,1.20
2019-05-09T17:11:19.208Z,1.30
2019-05-09T17:13:46.009Z,1.13
2019-05-09T17:16:12.774Z,1.17
2019-05-09T17:18:39.812Z,1.30
2019-05-09T17:21:21.359Z,1.00
2019-05-09T17:23:47.608Z,1.50
2019-05-09T17:26:17.573Z,1.50
2019-05-09T17:28:44.173Z,1.00
2019-05-09T17:31:10.899Z,1.90
2019-05-09T17:33:38.002Z,1.30
2019-05-09T17:36:04.610Z,1.37
2019-05-09T17:38:31.176Z,1.30
2019-05-09T17:40:57.938Z,1.70
2019-05-09T17:43:24.871Z,1.30
2019-05-09T17:45:51.537Z,1.17
2019-05-09T17:48:18.559Z,1.00
2019-05-09T17:50:46.951Z,1.73
2019-05-09T17:53:15.231Z,1.20
2019-05-09T17:55:42.381Z,1.27
2019-05-09T17:58:09.102Z,1.50
2019-05-09T18:00:37.993Z,1.40
2019-05-09T18:03:06.067Z,1.50
2019-05-09T18:05:35.779Z,1.30
2019-05-09T18:08:01.253Z,1.13
2019-05-09T18:10:28.300Z,1.50
2019-05-09T18:12:54.881Z,1.40
2019-05-09T18:15:21.918Z,1.20
2019-05-09T18:17:48.582Z,1.30
2019-05-09T18:20:17.640Z,1.10
2019-05-09T18:22:47.729Z,1.20
2019-05-09T18:25:14.639Z,1.60
2019-05-09T18:27:41.222Z,1.93
2019-05-09T18:30:08.461Z,2.07
2019-05-09T18:32:38.302Z,1.40
2019-05-09T18:35:19.466Z,1.60
2019-05-09T18:37:48.130Z,1.80
2019-05-09T18:40:17.987Z,2.10
2019-05-09T18:42:47.424Z,2.40
2019-05-09T18:45:14.410Z,2.20
2019-05-09T18:47:42.227Z,2.60
2019-05-09T18:50:11.284Z,2.20
2019-05-09T18:52:37.954Z,2.83
2019-05-09T18:55:07.441Z,1.80
2019-05-09T18:57:34.300Z,2.10
2019-05-09T19:00:01.908Z,1.83
2019-05-09T19:02:29.067Z,1.90
2019-05-09T19:04:55.740Z,1.60
2019-05-09T19:07:23.031Z,2.03
2019-05-09T19:09:50.002Z,2.00
2019-05-09T19:12:16.745Z,2.10
2019-05-09T19:14:44.791Z,2.20
2019-05-09T19:17:30.523Z,2.93
2019-05-09T19:20:15.674Z,3.40
2019-05-09T19:22:44.098Z,2.63
2019-05-09T19:25:11.735Z,2.60
2019-05-09T19:27:40.039Z,2.43
2019-05-09T19:30:07.381Z,2.80
2019-05-09T19:32:34.871Z,3.40
2019-05-09T19:35:02.545Z,3.30
2019-05-09T19:37:29.193Z,2.90
2019-05-09T19:39:57.491Z,2.67
2019-05-09T19:42:24.127Z,3.00
2019-05-09T19:44:50.659Z,2.97
2019-05-09T19:47:17.385Z,2.73
2019-05-09T19:49:44.015Z,2.80
2019-05-09T19:52:10.680Z,2.60
2019-05-09T19:54:37.358Z,2.70
2019-05-09T19:57:04.326Z,2.93
2019-05-09T19:59:30.961Z,2.90
2019-05-09T20:01:57.738Z,2.93
2019-05-09T20:04:24.379Z,2.97
2019-05-09T20:06:51.576Z,3.37
2019-05-09T20:09:21.136Z,3.30
2019-05-09T20:11:57.344Z,3.23
2019-05-09T20:14:26.003Z,3.43
2019-05-09T20:16:55.881Z,2.97
2019-05-09T20:19:22.645Z,3.03
2019-05-09T20:21:51.056Z,3.17
2019-05-09T20:24:17.901Z,3.17
2019-05-09T20:26:45.561Z,3.10
2019-05-09T20:29:12.358Z,2.67
2019-05-09T20:31:39.082Z,2.63
2019-05-09T20:34:06.765Z,2.50
2019-05-09T20:36:33.517Z,2.67
2019-05-09T20:39:00.128Z,2.57
2019-05-09T20:41:26.800Z,2.80
2019-05-09T20:43:53.540Z,2.90
2019-05-09T20:46:20.828Z,3.07
2019-05-09T20:48:47.557Z,2.30
2019-05-09T20:51:14.334Z,2.87
2019-05-09T20:53:40.961Z,2.50
2019-05-09T20:56:08.633Z,2.40
2019-05-09T20:58:35.686Z,2.47
2019-05-09T21:01:03.151Z,2.53
2019-05-09T21:03:29.716Z,2.60
2019-05-09T21:05:56.485Z,2.30
2019-05-09T21:08:24.526Z,2.73
2019-05-09T21:10:52.983Z,3.37
2019-05-09T21:13:19.628Z,2.70
2019-05-09T21:15:46.162Z,2.60
2019-05-09T21:18:12.857Z,2.57
2019-05-09T21:20:39.467Z,2.40
2019-05-09T21:23:06.839Z,2.90
2019-05-09T21:25:33.783Z,2.60
2019-05-09T21:28:00.633Z,2.43
2019-05-09T21:30:27.876Z,2.40
2019-05-09T21:32:54.548Z,2.23
2019-05-09T21:35:21.276Z,2.50
2019-05-09T21:37:48.441Z,2.30
2019-05-09T21:40:15.594Z,2.77
2019-05-09T21:42:42.258Z,1.90
2019-05-09T21:45:09.393Z,2.20
2019-05-09T21:47:36.193Z,2.80
2019-05-09T21:50:06.031Z,2.30
2019-05-09T21:52:32.703Z,2.50
2019-05-09T21:54:59.340Z,2.53
2019-05-09T21:57:26.676Z,2.87
2019-05-09T21:59:53.345Z,2.60
2019-05-09T22:02:20.700Z,2.60
2019-05-09T22:04:48.929Z,2.63
2019-05-09T22:07:15.805Z,2.70
2019-05-09T22:09:42.732Z,2.67
2019-05-09T22:12:09.607Z,2.97
2019-05-09T22:14:36.316Z,2.93
2019-05-09T22:17:04.850Z,2.87
2019-05-09T22:19:33.096Z,2.50
2019-05-09T22:22:00.121Z,2.43
2019-05-09T22:24:26.895Z,2.97
2019-05-09T22:26:53.613Z,3.67
2019-05-09T22:29:20.168Z,4.73
2019-05-09T22:31:46.795Z,4.40
2019-05-09T22:34:13.453Z,4.17
2019-05-09T22:36:39.990Z,4.47
2019-05-09T22:39:06.862Z,4.20
2019-05-09T22:41:33.591Z,3.60
2019-05-09T22:44:00.362Z,3.40
2019-05-09T22:46:28.630Z,3.13
2019-05-09T22:48:55.297Z,3.60
2019-05-09T22:51:21.933Z,4.20
2019-05-09T22:53:49.808Z,3.80
2019-05-09T22:56:17.443Z,4.60
2019-05-09T22:58:44.217Z,4.90
2019-05-09T23:01:11.275Z,4.87
2019-05-09T23:03:38.526Z,5.40
2019-05-09T23:06:05.191Z,5.90
2019-05-09T23:11:05.908Z,7.87
2019-05-09T23:18:46.809Z,8.10
2019-05-09T23:21:14.159Z,7.50
2019-05-09T23:23:41.627Z,4.37
2019-05-09T23:26:08.269Z,4.07
2019-05-09T23:28:34.922Z,5.47
2019-05-09T23:31:04.472Z,5.60
2019-05-09T23:33:33.034Z,5.87
2019-05-09T23:35:59.925Z,7.60
2019-05-09T23:38:28.160Z,8.47
2019-05-09T23:40:54.787Z,8.70
2019-05-09T23:43:22.446Z,8.87
2019-05-09T23:45:49.218Z,9.23
2019-05-09T23:48:16.676Z,9.90
2019-05-09T23:50:43.341Z,10.30
2019-05-09T23:53:09.976Z,9.90
2019-05-09T23:55:55.184Z,9.67
2019-05-09T23:58:41.032Z,10.30
